Time;durP1;ratioP1;P1;durP2;ratioP2;P2;SDS_P1;SDS_P2;PMS_P1;PMS_P2;Temp;Humidity;BMP_temperature;BMP_pressure;BME280_temperature;BME280_humidity;BME280_pressure;Samples;Min_cycle;Max_cycle;Signal;HPM_P1;HPM_P2
2023/07/06 00:02:05;;;;;;;14.43;7.82;;;22.00;99.90;;;;;;4787527;29;20053;-76
2023/07/06 00:04:32;;;;;;;15.43;8.10;;;21.90;99.90;;;;;;4785157;29;20058;-76
2023/07/06 00:06:59;;;;;;;13.52;7.50;;;21.90;99.90;;;;;;4786372;29;20065;-76
2023/07/06 00:09:27;;;;;;;18.88;8.30;;;21.80;99.90;;;;;;4802395;29;20073;-77
2023/07/06 00:11:55;;;;;;;14.15;8.20;;;21.80;99.90;;;;;;4786216;29;20069;-77
2023/07/06 00:14:24;;;;;;;11.65;7.45;;;21.80;99.90;;;;;;4800319;29;20050;-77
2023/07/06 00:17:13;;;;;;;12.65;7.75;;;21.70;99.90;;;;;;4789590;29;20664;-77
2023/07/06 00:19:42;;;;;;;10.15;6.88;;;21.70;99.90;;;;;;4784925;29;20136;-77
2023/07/06 00:22:10;;;;;;;12.45;7.00;;;21.80;99.90;;;;;;4802240;29;20049;-76
2023/07/06 00:24:40;;;;;;;12.18;7.28;;;21.90;99.90;;;;;;4772402;29;20064;-77
2023/07/06 00:27:08;;;;;;;11.05;6.80;;;21.80;99.90;;;;;;4800151;29;20129;-76
2023/07/06 00:29:35;;;;;;;13.57;6.25;;;21.80;99.90;;;;;;4793217;29;20943;-76
2023/07/06 00:35:10;;;;;;;8.93;5.43;;;21.80;99.90;;;;;;4744437;29;20595;-76
2023/07/06 00:37:38;;;;;;;8.98;5.00;;;21.70;99.90;;;;;;4793290;29;20054;-76
2023/07/06 00:40:08;;;;;;;10.07;4.88;;;21.70;99.90;;;;;;4800670;29;20061;-76
2023/07/06 00:42:36;;;;;;;10.02;4.60;;;21.70;99.90;;;;;;4799365;29;20054;-76
2023/07/06 00:45:10;;;;;;;8.50;4.47;;;21.70;99.90;;;;;;4799128;29;20057;-76
2023/07/06 00:47:42;;;;;;;9.07;4.38;;;21.70;99.90;;;;;;4786236;29;20081;-76
2023/07/06 00:50:15;;;;;;;7.45;4.18;;;21.70;99.90;;;;;;4800688;29;20122;-76
2023/07/06 00:52:48;;;;;;;8.23;4.55;;;21.80;99.90;;;;;;4801933;29;20058;-75
2023/07/06 00:55:19;;;;;;;9.57;4.20;;;21.70;99.90;;;;;;4783733;29;20223;-76
2023/07/06 00:57:51;;;;;;;6.43;4.40;;;21.70;99.90;;;;;;4783480;29;20060;-76
2023/07/06 01:00:20;;;;;;;7.63;5.00;;;21.70;99.90;;;;;;4786420;29;22141;-77
2023/07/06 01:02:55;;;;;;;7.32;4.70;;;21.70;99.90;;;;;;4797732;29;20062;-76
2023/07/06 01:05:25;;;;;;;9.32;4.53;;;21.70;99.90;;;;;;4782429;29;20114;-76
2023/07/06 01:07:54;;;;;;;7.20;4.63;;;21.70;99.90;;;;;;4801921;29;20402;-76
2023/07/06 01:10:22;;;;;;;8.57;4.97;;;21.70;99.90;;;;;;4772935;29;20117;-76
2023/07/06 01:12:51;;;;;;;8.63;5.05;;;21.70;99.90;;;;;;4787648;29;20643;-76
2023/07/06 01:15:18;;;;;;;10.23;4.82;;;21.70;99.90;;;;;;4782081;29;20042;-76
2023/07/06 01:18:02;;;;;;;11.07;5.65;;;21.60;99.90;;;;;;4768841;29;20526;-76
2023/07/06 01:20:39;;;;;;;9.02;4.88;;;21.60;99.90;;;;;;4795628;29;20161;-76
2023/07/06 01:23:28;;;;;;;8.38;4.55;;;21.70;99.90;;;;;;4781583;29;20054;-76
2023/07/06 01:26:32;;;;;;;10.43;4.35;;;21.70;99.90;;;;;;4766252;29;22254;-76
2023/07/06 01:29:14;;;;;;;11.20;4.63;;;21.70;99.90;;;;;;4802821;29;20543;-76
2023/07/06 01:32:11;;;;;;;7.15;4.70;;;21.70;99.90;;;;;;4807053;29;20050;-75
2023/07/06 01:34:42;;;;;;;8.93;4.50;;;21.70;99.90;;;;;;4783687;29;20118;-76
2023/07/06 01:37:45;;;;;;;11.43;4.63;;;21.70;99.90;;;;;;4771159;29;20198;-76
2023/07/06 01:40:12;;;;;;;;;;;21.60;99.90;;;;;;4753775;29;20190;-76
2023/07/06 01:42:42;;;;;;;8.02;4.65;;;21.60;99.90;;;;;;4784198;29;19974;-76
2023/07/06 01:45:21;;;;;;;9.05;4.90;;;21.70;99.90;;;;;;4777181;29;20144;-76
2023/07/06 01:47:56;;;;;;;9.70;3.97;;;21.60;99.90;;;;;;4781286;29;20060;-76
2023/07/06 01:50:35;;;;;;;7.10;4.13;;;21.60;99.90;;;;;;4789536;29;20061;-76
2023/07/06 01:53:02;;;;;;;6.40;4.20;;;21.70;99.90;;;;;;4785542;29;20054;-76
2023/07/06 01:55:57;;;;;;;6.82;3.80;;;21.70;99.90;;;;;;4801023;29;20115;-76
2023/07/06 01:58:29;;;;;;;6.53;3.80;;;21.70;99.90;;;;;;4786021;29;20065;-76
2023/07/06 02:01:02;;;;;;;8.13;4.73;;;21.70;99.90;;;;;;4787926;29;20053;-76
2023/07/06 02:03:30;;;;;;;9.27;4.38;;;21.70;99.90;;;;;;4775239;29;20438;-76
2023/07/06 02:05:57;;;;;;;8.55;3.72;;;21.60;99.90;;;;;;4790126;29;20049;-76
2023/07/06 02:08:26;;;;;;;7.85;4.53;;;21.70;99.90;;;;;;4794635;29;20083;-76
2023/07/06 02:10:53;;;;;;;7.28;4.10;;;21.70;99.90;;;;;;4765390;29;20076;-76
2023/07/06 02:13:21;;;;;;;8.10;4.13;;;21.60;99.90;;;;;;4784407;29;22757;-76
2023/07/06 02:15:48;;;;;;;7.57;3.63;;;21.60;99.90;;;;;;4788144;29;20056;-76
2023/07/06 02:18:15;;;;;;;5.78;4.10;;;21.60;99.90;;;;;;4768958;29;20068;-76
2023/07/06 02:20:42;;;;;;;9.70;4.57;;;21.50;99.90;;;;;;4787293;29;20390;-76
2023/07/06 02:23:11;;;;;;;8.07;4.20;;;21.40;99.90;;;;;;4791538;29;20050;-76
2023/07/06 02:25:39;;;;;;;6.32;4.00;;;21.40;99.90;;;;;;4783018;29;20053;-76
2023/07/06 02:28:08;;;;;;;10.88;4.53;;;21.30;99.90;;;;;;4776166;29;20058;-76
2023/07/06 02:30:37;;;;;;;7.07;3.83;;;21.30;99.90;;;;;;4783568;29;20049;-76
2023/07/06 02:33:04;;;;;;;9.02;4.78;;;21.30;99.90;;;;;;4778001;29;20077;-76
2023/07/06 02:35:32;;;;;;;9.75;4.80;;;21.30;99.90;;;;;;4796860;29;20498;-76
2023/07/06 02:38:00;;;;;;;7.57;4.40;;;21.30;99.90;;;;;;4800080;29;20194;-76
2023/07/06 02:40:27;;;;;;;7.57;4.05;;;21.30;99.90;;;;;;4784644;29;20137;-76
2023/07/06 02:42:55;;;;;;;9.68;3.95;;;21.30;99.90;;;;;;4797652;29;20093;-76
2023/07/06 02:45:23;;;;;;;6.70;3.90;;;21.40;99.90;;;;;;4799184;29;20553;-76
2023/07/06 02:47:50;;;;;;;6.47;3.92;;;21.40;99.90;;;;;;4784375;29;20058;-76
2023/07/06 02:50:19;;;;;;;7.35;4.00;;;21.40;99.90;;;;;;4790673;29;20057;-76
2023/07/06 02:52:47;;;;;;;8.10;4.07;;;21.40;99.90;;;;;;4781139;29;20210;-76
2023/07/06 02:55:16;;;;;;;8.27;4.32;;;21.40;99.90;;;;;;4779322;29;20042;-76
2023/07/06 02:57:43;;;;;;;8.98;4.78;;;21.40;99.90;;;;;;4796270;29;20190;-76
2023/07/06 03:00:13;;;;;;;9.60;4.82;;;21.40;99.90;;;;;;4777979;29;20534;-76
2023/07/06 03:02:41;;;;;;;7.63;4.10;;;21.40;99.90;;;;;;4788907;29;20042;-76
2023/07/06 03:05:10;;;;;;;7.18;4.20;;;21.30;99.90;;;;;;4795666;29;20049;-76
2023/07/06 03:07:38;;;;;;;8.05;3.83;;;21.30;99.90;;;;;;4786462;29;20062;-76
2023/07/06 03:10:09;;;;;;;5.88;3.42;;;21.20;99.90;;;;;;4782191;29;20054;-76
2023/07/06 03:12:39;;;;;;;7.38;3.22;;;21.20;99.90;;;;;;4812120;29;20065;-76
2023/07/06 03:15:12;;;;;;;7.18;3.13;;;21.30;99.90;;;;;;4775221;29;20058;-76
2023/07/06 03:17:40;;;;;;;6.93;3.40;;;21.30;99.90;;;;;;4768053;29;20057;-76
2023/07/06 03:20:15;;;;;;;6.97;3.45;;;21.30;99.90;;;;;;4784532;29;20149;-76
2023/07/06 03:22:45;;;;;;;7.18;3.38;;;21.30;99.90;;;;;;4782669;29;20045;-77
2023/07/06 03:25:18;;;;;;;5.07;3.00;;;21.30;99.90;;;;;;4786794;29;20050;-77
2023/07/06 03:27:46;;;;;;;5.90;2.60;;;21.30;99.90;;;;;;4807235;29;20065;-76
2023/07/06 03:30:17;;;;;;;6.57;3.13;;;21.30;99.90;;;;;;4786139;29;20054;-77
2023/07/06 03:32:45;;;;;;;5.90;2.90;;;21.20;99.90;;;;;;4786961;29;20470;-76
2023/07/06 03:35:13;;;;;;;6.20;2.55;;;21.20;99.90;;;;;;4798872;29;20060;-76
2023/07/06 03:37:42;;;;;;;5.70;2.45;;;21.20;99.90;;;;;;4784860;29;20053;-76
2023/07/06 03:40:11;;;;;;;4.78;2.90;;;21.20;99.90;;;;;;4800186;29;20038;-76
2023/07/06 03:42:45;;;;;;;4.78;2.42;;;21.20;99.90;;;;;;4781782;29;20054;-76
2023/07/06 03:45:14;;;;;;;5.65;2.70;;;21.10;99.90;;;;;;4800973;29;20394;-76
2023/07/06 03:47:43;;;;;;;6.00;2.55;;;21.10;99.90;;;;;;4801800;29;20079;-77
2023/07/06 03:50:12;;;;;;;6.30;2.42;;;21.00;99.90;;;;;;4787365;29;20145;-75
2023/07/06 03:52:39;;;;;;;4.38;2.50;;;21.00;99.90;;;;;;4799254;29;20152;-76
2023/07/06 03:55:14;;;;;;;5.20;2.28;;;21.00;99.90;;;;;;4787158;29;20771;-77
2023/07/06 03:57:45;;;;;;;5.13;2.05;;;21.00;99.90;;;;;;4766531;29;20045;-76
2023/07/06 04:00:30;;;;;;;3.55;1.95;;;21.00;99.90;;;;;;4802597;29;20061;-76
2023/07/06 04:03:03;;;;;;;6.68;2.30;;;21.00;99.90;;;;;;4801408;29;22411;-76
2023/07/06 04:05:36;;;;;;;3.90;2.00;;;21.00;99.90;;;;;;4788814;29;20050;-76
2023/07/06 04:08:10;;;;;;;4.88;2.05;;;21.00;99.90;;;;;;4777844;29;20062;-76
2023/07/06 04:10:38;;;;;;;3.13;1.85;;;21.10;99.90;;;;;;4802688;29;20046;-76
2023/07/06 04:13:06;;;;;;;4.68;1.98;;;21.10;99.90;;;;;;4777536;29;20437;-76
2023/07/06 04:15:34;;;;;;;6.90;2.13;;;21.10;99.90;;;;;;4771561;29;20254;-76
2023/07/06 04:18:03;;;;;;;4.97;1.90;;;21.20;99.90;;;;;;4772625;29;20083;-77
2023/07/06 04:20:34;;;;;;;3.55;1.75;;;21.20;99.90;;;;;;4774788;29;20057;-77
2023/07/06 04:23:02;;;;;;;4.28;1.88;;;21.30;99.90;;;;;;4803075;29;20050;-77
2023/07/06 04:25:33;;;;;;;5.88;2.05;;;21.40;99.90;;;;;;4804278;29;20054;-78
2023/07/06 04:28:06;;;;;;;4.13;1.38;;;21.30;99.90;;;;;;4792012;29;20049;-78
2023/07/06 04:30:36;;;;;;;4.90;1.88;;;21.40;99.80;;;;;;4795417;29;20186;-77
2023/07/06 04:33:04;;;;;;;4.50;1.77;;;21.40;99.80;;;;;;4800782;29;23179;-77
2023/07/06 04:35:32;;;;;;;3.97;1.50;;;21.40;99.60;;;;;;4787229;29;20223;-76
2023/07/06 04:38:04;;;;;;;4.28;1.70;;;21.40;99.30;;;;;;4791706;29;20054;-76
2023/07/06 04:40:31;;;;;;;4.55;1.88;;;21.50;99.20;;;;;;4767539;29;20247;-76
2023/07/06 04:42:59;;;;;;;3.97;1.50;;;21.50;99.10;;;;;;4787113;29;20083;-77
2023/07/06 04:45:27;;;;;;;3.47;1.38;;;21.70;99.20;;;;;;4801857;29;20059;-76
2023/07/06 04:47:56;;;;;;;5.05;1.60;;;21.70;99.10;;;;;;4798005;29;20139;-77
2023/07/06 04:50:24;;;;;;;5.18;1.60;;;21.70;99.10;;;;;;4809207;29;20072;-77
2023/07/06 04:53:00;;;;;;;3.75;1.25;;;21.70;98.60;;;;;;4792876;29;20062;-77
2023/07/06 04:55:30;;;;;;;3.83;1.33;;;21.70;98.40;;;;;;4786837;29;20138;-77
2023/07/06 04:57:59;;;;;;;8.07;1.25;;;21.60;98.40;;;;;;4798343;29;20405;-77
2023/07/06 05:00:29;;;;;;;4.35;1.25;;;21.70;98.40;;;;;;4787375;29;20532;-77
2023/07/06 05:03:08;;;;;;;3.63;1.15;;;21.60;98.10;;;;;;4802271;29;20069;-77
2023/07/06 05:05:45;;;;;;;3.80;1.05;;;21.50;98.00;;;;;;4803601;29;20113;-77
2023/07/06 05:08:16;;;;;;;6.40;1.40;;;21.50;98.10;;;;;;4783833;29;20049;-77
2023/07/06 05:10:51;;;;;;;5.85;1.00;;;21.40;97.70;;;;;;4801795;29;20526;-76
2023/07/06 05:13:21;;;;;;;3.00;1.00;;;21.40;97.50;;;;;;4782154;29;20054;-76
2023/07/06 05:15:49;;;;;;;2.25;0.90;;;21.30;98.00;;;;;;4770328;29;20138;-76
2023/07/06 05:18:20;;;;;;;3.15;0.88;;;21.30;98.50;;;;;;4820643;29;20049;-77
2023/07/06 05:20:49;;;;;;;3.08;1.10;;;21.40;99.50;;;;;;4793191;29;20046;-77
2023/07/06 05:23:18;;;;;;;2.80;0.68;;;21.20;98.90;;;;;;4784899;29;20178;-76
2023/07/06 05:25:46;;;;;;;3.33;0.90;;;21.30;99.30;;;;;;4799194;29;20416;-77
2023/07/06 05:28:19;;;;;;;2.30;0.80;;;21.30;99.40;;;;;;4785668;29;20950;-76
2023/07/06 05:30:48;;;;;;;2.20;1.10;;;21.30;99.10;;;;;;4789934;29;20803;-77
2023/07/06 05:33:16;;;;;;;1.98;0.80;;;21.30;99.60;;;;;;4809965;29;20049;-77
2023/07/06 05:35:47;;;;;;;4.60;1.20;;;21.30;99.90;;;;;;4792410;29;20192;-76
2023/07/06 05:38:18;;;;;;;;;;;21.20;99.90;;;;;;4792493;29;20679;-76
2023/07/06 05:40:45;;;;;;;3.30;0.70;;;21.10;99.90;;;;;;4781445;29;19925;-76
2023/07/06 05:43:12;;;;;;;2.80;0.98;;;21.10;99.90;;;;;;4801214;29;20079;-77
2023/07/06 05:45:40;;;;;;;2.63;0.85;;;21.00;99.90;;;;;;4781910;29;20585;-75
2023/07/06 05:48:07;;;;;;;5.25;0.93;;;21.00;99.90;;;;;;4803417;29;20064;-76
2023/07/06 05:50:34;;;;;;;6.00;1.10;;;20.90;99.90;;;;;;4808998;29;20063;-76
2023/07/06 05:53:02;;;;;;;3.63;1.00;;;20.90;99.90;;;;;;4771284;29;20061;-76
2023/07/06 05:55:29;;;;;;;2.92;0.90;;;20.80;99.90;;;;;;4799838;29;20053;-76
2023/07/06 05:57:56;;;;;;;2.38;1.00;;;20.80;99.90;;;;;;4769288;29;20046;-77
2023/07/06 06:00:25;;;;;;;3.80;1.60;;;20.80;99.90;;;;;;4782891;29;20062;-77
2023/07/06 06:02:52;;;;;;;3.42;1.10;;;20.80;99.90;;;;;;4768493;29;20058;-77
2023/07/06 06:05:19;;;;;;;5.47;1.02;;;20.80;99.90;;;;;;4795459;29;20049;-76
2023/07/06 06:07:47;;;;;;;3.58;0.98;;;20.80;99.90;;;;;;4811818;29;20048;-76
2023/07/06 06:10:14;;;;;;;4.47;1.45;;;20.70;99.90;;;;;;4782043;29;20085;-76
2023/07/06 06:12:44;;;;;;;2.95;0.85;;;21.00;99.90;;;;;;4790893;29;20089;-76
2023/07/06 06:15:12;;;;;;;2.50;1.05;;;20.80;99.90;;;;;;4782142;29;20046;-76
2023/07/06 06:17:40;;;;;;;4.28;1.15;;;20.80;99.90;;;;;;4781054;29;20046;-76
2023/07/06 06:20:11;;;;;;;4.43;1.10;;;20.60;99.90;;;;;;4797273;29;20482;-76
2023/07/06 06:22:39;;;;;;;4.70;1.48;;;20.40;99.90;;;;;;4784464;29;20046;-77
2023/07/06 06:25:07;;;;;;;3.50;0.98;;;20.60;99.90;;;;;;4783536;29;22475;-79
2023/07/06 06:27:34;;;;;;;4.22;1.27;;;20.70;99.90;;;;;;4779627;29;20046;-78
2023/07/06 06:30:01;;;;;;;3.38;1.48;;;20.70;99.90;;;;;;4781515;29;20156;-79
2023/07/06 06:32:29;;;;;;;5.40;2.03;;;20.70;99.90;;;;;;4762431;29;20620;-79
2023/07/06 06:34:59;;;;;;;6.20;1.83;;;20.70;99.90;;;;;;4798235;29;20145;-79
2023/07/06 06:37:27;;;;;;;4.78;1.73;;;20.50;99.90;;;;;;4793390;29;22674;-79
2023/07/06 06:39:54;;;;;;;7.20;1.77;;;20.50;99.90;;;;;;4781254;29;20050;-78
2023/07/06 06:42:21;;;;;;;3.55;1.38;;;20.60;99.90;;;;;;4794788;29;20086;-78
2023/07/06 06:44:50;;;;;;;5.30;1.70;;;20.70;99.90;;;;;;4795541;29;20536;-78
2023/07/06 06:47:17;;;;;;;2.70;1.17;;;20.80;99.90;;;;;;4794720;29;20109;-78
2023/07/06 06:49:44;;;;;;;3.53;1.27;;;21.00;99.90;;;;;;4786272;29;20050;-78
2023/07/06 06:52:11;;;;;;;3.80;1.35;;;21.20;99.90;;;;;;4798956;29;20069;-78
2023/07/06 06:54:40;;;;;;;6.07;1.95;;;21.30;99.90;;;;;;4786964;29;20065;-76
2023/07/06 06:57:07;;;;;;;5.63;1.70;;;21.20;99.90;;;;;;4781909;29;20064;-77
2023/07/06 06:59:35;;;;;;;5.50;1.75;;;21.20;99.90;;;;;;4793309;29;20426;-77
2023/07/06 07:02:02;;;;;;;4.60;1.60;;;21.30;99.90;;;;;;4799735;29;20077;-77
2023/07/06 07:04:31;;;;;;;6.25;1.98;;;21.50;99.90;;;;;;4806057;29;20058;-77
2023/07/06 07:07:03;;;;;;;7.72;1.77;;;21.60;99.90;;;;;;4773661;29;20046;-77
2023/07/06 07:09:31;;;;;;;5.75;1.92;;;21.50;99.90;;;;;;4800645;29;20046;-77
2023/07/06 07:11:59;;;;;;;3.58;1.52;;;21.50;99.90;;;;;;4803251;29;20667;-78
2023/07/06 07:14:27;;;;;;;4.95;1.95;;;21.40;99.90;;;;;;4796418;29;20045;-78
2023/07/06 07:16:55;;;;;;;5.88;1.70;;;21.30;99.90;;;;;;4798859;29;20053;-78
2023/07/06 07:19:22;;;;;;;3.63;1.50;;;21.30;99.90;;;;;;4784037;29;20074;-78
2023/07/06 07:21:50;;;;;;;4.10;2.10;;;21.30;99.90;;;;;;4779283;29;22807;-77
2023/07/06 07:24:17;;;;;;;6.80;2.03;;;21.30;99.90;;;;;;4780237;29;20120;-78
2023/07/06 07:26:48;;;;;;;5.63;2.33;;;21.30;99.90;;;;;;4800601;29;20053;-78
2023/07/06 07:29:16;;;;;;;4.13;2.03;;;21.40;99.90;;;;;;4771645;29;20127;-78
2023/07/06 07:31:43;;;;;;;4.18;1.65;;;21.50;99.90;;;;;;4801202;29;20042;-78
2023/07/06 07:34:10;;;;;;;4.80;1.38;;;21.80;99.90;;;;;;4783552;29;20050;-79
2023/07/06 07:36:39;;;;;;;3.10;1.70;;;22.10;99.90;;;;;;4802383;29;20058;-79
2023/07/06 07:39:06;;;;;;;3.92;1.58;;;22.30;99.90;;;;;;4784763;29;20058;-79
2023/07/06 07:41:33;;;;;;;4.22;1.95;;;22.70;99.90;;;;;;4774814;29;20057;-80
2023/07/06 07:44:01;;;;;;;4.30;1.35;;;22.90;99.90;;;;;;4804052;29;20066;-79
2023/07/06 07:46:29;;;;;;;6.15;1.90;;;22.90;99.90;;;;;;4779514;29;20159;-79
2023/07/06 07:48:57;;;;;;;5.47;2.50;;;23.00;99.90;;;;;;4787129;29;20933;-79
2023/07/06 07:51:26;;;;;;;7.68;3.15;;;22.80;99.90;;;;;;4785512;29;20528;-80
2023/07/06 07:53:54;;;;;;;5.97;1.45;;;22.40;99.90;;;;;;4785069;29;20066;-79
2023/07/06 07:56:27;;;;;;;4.47;1.95;;;22.40;99.90;;;;;;4781764;29;20644;-78
2023/07/06 07:58:54;;;;;;;6.43;1.60;;;22.70;99.90;;;;;;4786651;29;20410;-79
2023/07/06 08:01:24;;;;;;;4.38;1.50;;;22.80;99.90;;;;;;4783902;29;20325;-77
2023/07/06 08:03:54;;;;;;;3.97;1.65;;;23.10;99.90;;;;;;4760856;29;20058;-78
2023/07/06 08:06:22;;;;;;;5.07;1.88;;;23.30;99.60;;;;;;4782007;29;20054;-79
2023/07/06 08:08:50;;;;;;;4.07;1.75;;;23.60;98.60;;;;;;4783891;29;20552;-78
2023/07/06 08:11:24;;;;;;;5.72;2.08;;;23.80;98.10;;;;;;4783642;29;20050;-78
2023/07/06 08:13:53;;;;;;;4.25;1.88;;;23.50;96.70;;;;;;4796569;29;20062;-78
2023/07/06 08:16:22;;;;;;;3.30;1.38;;;23.40;97.00;;;;;;4767041;29;20076;-78
2023/07/06 08:18:51;;;;;;;4.20;2.05;;;23.40;97.50;;;;;;4770887;29;20463;-79
2023/07/06 08:21:33;;;;;;;4.70;1.52;;;23.30;97.40;;;;;;4782086;29;20165;-79
2023/07/06 08:24:21;;;;;;;4.30;1.52;;;23.40;98.00;;;;;;4799400;29;20169;-79
2023/07/06 08:26:49;;;;;;;8.13;1.55;;;23.40;97.50;;;;;;4764918;29;20042;-78
2023/07/06 08:29:17;;;;;;;3.35;1.60;;;23.30;96.20;;;;;;4783591;29;20037;-79
2023/07/06 08:31:45;;;;;;;4.28;1.38;;;23.30;97.00;;;;;;4786489;29;20379;-81
2023/07/06 08:34:14;;;;;;;6.28;1.85;;;23.30;96.80;;;;;;4790349;29;20052;-79
2023/07/06 08:36:41;;;;;;;3.22;1.60;;;23.20;97.20;;;;;;4781675;29;20053;-79
2023/07/06 08:39:10;;;;;;;3.22;1.50;;;23.20;96.50;;;;;;4782842;29;20054;-81
2023/07/06 08:41:42;;;;;;;2.90;1.30;;;23.10;96.10;;;;;;4777624;29;20054;-80
2023/07/06 08:44:13;;;;;;;4.00;1.50;;;23.10;96.30;;;;;;4769342;29;20054;-78
2023/07/06 08:46:48;;;;;;;5.78;1.42;;;23.10;96.10;;;;;;4795047;29;20077;-79
2023/07/06 08:49:31;;;;;;;3.70;1.77;;;23.00;96.90;;;;;;4790987;29;20595;-79
2023/07/06 08:52:05;;;;;;;2.78;1.30;;;22.80;96.60;;;;;;4801191;29;20058;-79
2023/07/06 08:54:41;;;;;;;3.90;1.10;;;23.00;96.40;;;;;;4796508;29;20474;-79
2023/07/06 08:57:19;;;;;;;3.80;1.40;;;23.20;96.50;;;;;;4805682;29;20065;-79
2023/07/06 08:59:49;;;;;;;5.70;1.60;;;23.50;95.90;;;;;;4798613;29;20137;-81
2023/07/06 09:02:19;;;;;;;4.70;1.60;;;24.10;94.90;;;;;;4780312;29;20042;-79
2023/07/06 09:04:48;;;;;;;4.18;1.42;;;24.20;93.50;;;;;;4784231;29;20046;-79
2023/07/06 09:07:17;;;;;;;3.85;1.75;;;24.40;92.90;;;;;;4785028;29;20531;-78
2023/07/06 09:09:47;;;;;;;5.22;1.27;;;24.40;92.90;;;;;;4801181;29;20494;-80
2023/07/06 09:12:32;;;;;;;6.57;1.52;;;24.30;93.20;;;;;;4789052;29;20054;-79
2023/07/06 09:15:02;;;;;;;3.55;1.48;;;24.50;93.20;;;;;;4778569;29;20856;-79
2023/07/06 09:17:30;;;;;;;6.32;1.95;;;24.50;92.50;;;;;;4783485;29;20068;-79
2023/07/06 09:19:57;;;;;;;3.85;1.40;;;24.50;92.40;;;;;;4801797;29;20203;-79
2023/07/06 09:22:26;;;;;;;3.80;1.50;;;24.60;92.00;;;;;;4800752;29;22509;-80
2023/07/06 09:25:01;;;;;;;3.63;1.10;;;24.70;91.50;;;;;;4783771;29;20058;-80
2023/07/06 09:27:28;;;;;;;2.67;1.27;;;24.70;91.40;;;;;;4799702;29;20061;-79
2023/07/06 09:30:05;;;;;;;3.95;1.55;;;24.80;90.30;;;;;;4784693;29;20632;-80
2023/07/06 09:32:34;;;;;;;3.72;2.13;;;25.00;90.80;;;;;;4784669;29;20129;-80
2023/07/06 09:35:20;;;;;;;3.85;1.60;;;25.00;90.30;;;;;;4799144;29;21715;-78
2023/07/06 09:37:49;;;;;;;4.38;1.80;;;24.80;89.80;;;;;;4778428;29;20091;-83
2023/07/06 09:40:28;;;;;;;3.92;1.45;;;24.60;90.20;;;;;;4771590;29;20058;-78
2023/07/06 09:43:28;;;;;;;3.22;1.40;;;24.60;90.10;;;;;;4801754;29;20038;-79
2023/07/06 09:45:59;;;;;;;3.83;1.25;;;24.60;90.50;;;;;;4784219;29;20858;-78
2023/07/06 09:48:33;;;;;;;2.17;1.13;;;24.60;90.60;;;;;;4762261;29;20065;-79
2023/07/06 09:51:14;;;;;;;3.83;1.48;;;25.00;90.00;;;;;;4775250;29;20058;-79
2023/07/06 09:54:11;;;;;;;3.77;1.70;;;25.20;89.00;;;;;;4776473;29;20091;-78
2023/07/06 09:56:38;;;;;;;3.72;1.38;;;25.20;88.60;;;;;;4773874;29;20449;-79
2023/07/06 09:59:06;;;;;;;4.85;1.98;;;25.00;89.50;;;;;;4764299;29;20058;-78
2023/07/06 10:01:56;;;;;;;4.07;1.48;;;24.70;89.10;;;;;;4795344;29;21603;-81
2023/07/06 10:04:49;;;;;;;3.83;1.58;;;24.90;88.70;;;;;;4761002;29;20055;-78
2023/07/06 10:07:20;;;;;;;3.00;1.10;;;25.20;88.40;;;;;;4776447;29;20046;-77
2023/07/06 10:10:08;;;;;;;3.17;1.10;;;25.50;88.90;;;;;;4753747;29;20062;-79
2023/07/06 10:13:03;;;;;;;2.67;1.88;;;25.60;87.30;;;;;;4786406;29;20058;-77
2023/07/06 10:15:46;;;;;;;3.28;1.50;;;25.80;86.20;;;;;;4758920;29;20366;-78
2023/07/06 10:18:19;;;;;;;3.72;1.50;;;26.00;86.00;;;;;;4766512;29;20106;-77
2023/07/06 10:20:51;;;;;;;3.35;1.30;;;25.60;85.10;;;;;;4764072;29;20524;-78
2023/07/06 10:23:44;;;;;;;3.88;1.67;;;25.50;87.60;;;;;;4777946;29;20078;-78
2023/07/06 10:26:29;;;;;;;4.03;1.88;;;25.20;87.20;;;;;;4764282;29;20054;-78
2023/07/06 10:29:05;;;;;;;4.63;1.67;;;25.10;87.60;;;;;;4772434;29;20049;-78
2023/07/06 10:31:42;;;;;;;4.10;1.75;;;25.10;86.80;;;;;;4776785;29;20062;-78
2023/07/06 10:34:38;;;;;;;3.33;1.55;;;25.10;87.10;;;;;;4787509;29;20088;-78
2023/07/06 10:37:07;;;;;;;3.58;1.35;;;25.10;89.10;;;;;;4768731;29;20570;-80
2023/07/06 10:39:43;;;;;;;5.03;1.35;;;25.20;87.40;;;;;;4784883;29;20087;-79
2023/07/06 10:42:25;;;;;;;4.05;1.75;;;25.50;90.60;;;;;;4767431;29;20055;-77
2023/07/06 10:44:58;;;;;;;3.65;1.52;;;25.60;88.10;;;;;;4782786;29;20101;-79
2023/07/06 10:47:32;;;;;;;2.97;1.98;;;25.60;86.60;;;;;;4787478;29;20171;-79
2023/07/06 10:50:28;;;;;;;4.07;1.98;;;25.80;85.20;;;;;;4759160;29;20148;-81
2023/07/06 10:53:02;;;;;;;3.80;1.65;;;26.00;85.20;;;;;;4783673;29;20078;-77
2023/07/06 10:55:35;;;;;;;5.45;2.08;;;26.10;83.60;;;;;;4766383;29;20062;-78
2023/07/06 10:58:17;;;;;;;6.97;2.42;;;26.30;85.10;;;;;;4793742;29;22486;-77
2023/07/06 11:00:46;;;;;;;2.28;1.73;;;26.30;83.60;;;;;;4770497;29;20072;-79
2023/07/06 11:03:22;;;;;;;4.32;2.08;;;26.40;83.90;;;;;;4787742;29;20188;-79
2023/07/06 11:05:54;;;;;;;3.78;1.38;;;26.50;83.20;;;;;;4772671;29;20137;-79
2023/07/06 11:09:07;;;;;;;4.80;1.40;;;26.30;83.30;;;;;;4786381;29;20682;-78
2023/07/06 11:11:38;;;;;;;4.57;1.40;;;26.10;84.20;;;;;;4768786;29;20530;-77
2023/07/06 11:14:33;;;;;;;6.47;1.80;;;26.00;86.40;;;;;;4782111;29;20069;-78
2023/07/06 11:17:14;;;;;;;2.97;1.50;;;26.10;85.10;;;;;;4755101;29;20950;-79
2023/07/06 11:20:03;;;;;;;3.20;1.40;;;26.10;84.60;;;;;;4787645;29;20057;-82
2023/07/06 11:22:32;;;;;;;4.82;1.63;;;26.20;85.60;;;;;;4773478;29;21248;-81
2023/07/06 11:25:03;;;;;;;4.85;1.38;;;26.10;83.10;;;;;;4769812;29;20089;-80
2023/07/06 11:27:37;;;;;;;4.22;1.70;;;26.40;82.10;;;;;;4773330;29;20061;-79
2023/07/06 11:30:40;;;;;;;3.13;1.55;;;26.70;80.70;;;;;;4787485;29;20548;-79
2023/07/06 11:33:10;;;;;;;2.63;1.40;;;26.70;79.80;;;;;;4744714;29;20943;-79
2023/07/06 11:35:48;;;;;;;2.72;1.38;;;26.80;77.90;;;;;;4753448;29;20055;-79
2023/07/06 11:38:57;;;;;;;2.10;1.00;;;26.80;77.30;;;;;;4770617;29;20426;-78
2023/07/06 11:41:42;;;;;;;2.20;1.00;;;26.70;75.20;;;;;;4783702;29;20188;-79
2023/07/06 11:44:44;;;;;;;2.90;1.25;;;26.70;74.30;;;;;;4787787;29;20834;-79
2023/07/06 11:47:27;;;;;;;2.55;1.17;;;26.60;74.30;;;;;;4805054;29;20050;-76
2023/07/06 11:49:59;;;;;;;3.72;1.40;;;26.70;74.70;;;;;;4798386;29;20062;-79
2023/07/06 11:52:33;;;;;;;4.45;1.40;;;26.70;73.90;;;;;;4804484;29;22438;-77
2023/07/06 11:55:31;;;;;;;5.93;1.83;;;26.70;76.30;;;;;;4787016;29;20061;-80
2023/07/06 11:58:08;;;;;;;5.32;1.35;;;26.60;77.70;;;;;;4773280;29;20062;-79
2023/07/06 12:00:51;;;;;;;7.18;1.75;;;26.70;78.50;;;;;;4804023;29;20107;-82
2023/07/06 12:03:25;;;;;;;2.75;1.42;;;26.40;75.70;;;;;;4787201;29;22579;-80
2023/07/06 12:05:58;;;;;;;4.70;1.85;;;26.30;76.20;;;;;;4816294;29;20061;-80
2023/07/06 12:08:29;;;;;;;4.15;1.25;;;26.60;74.50;;;;;;4788463;29;20054;-78
2023/07/06 12:11:11;;;;;;;4.25;2.00;;;26.80;74.10;;;;;;4807435;29;20746;-83
2023/07/06 12:13:42;;;;;;;4.10;1.42;;;26.80;74.90;;;;;;4804241;29;20179;-79
2023/07/06 12:16:11;;;;;;;3.30;1.38;;;26.70;74.00;;;;;;4804602;29;20065;-76
2023/07/06 12:18:41;;;;;;;3.08;1.35;;;26.70;72.90;;;;;;4804670;29;20057;-79
2023/07/06 12:21:24;;;;;;;2.83;1.25;;;26.50;74.00;;;;;;4805277;29;20614;-79
2023/07/06 12:23:51;;;;;;;3.58;1.50;;;26.50;74.40;;;;;;4789088;29;20054;-78
2023/07/06 12:26:18;;;;;;;2.65;1.20;;;26.60;73.80;;;;;;4769896;29;20153;-78
2023/07/06 12:28:47;;;;;;;3.38;1.13;;;26.80;74.30;;;;;;4792217;29;20057;-77
2023/07/06 12:31:18;;;;;;;3.17;1.48;;;26.80;73.20;;;;;;4782178;29;20050;-79
2023/07/06 12:33:46;;;;;;;3.47;1.25;;;26.80;75.70;;;;;;4774361;29;20045;-80
2023/07/06 12:36:14;;;;;;;3.22;1.35;;;26.60;74.10;;;;;;4788651;29;20148;-81
2023/07/06 12:38:41;;;;;;;5.40;1.17;;;26.50;71.90;;;;;;4776948;29;20060;-79
2023/07/06 12:41:21;;;;;;;2.40;0.88;;;26.80;72.50;;;;;;4799988;29;20054;-80
2023/07/06 12:43:53;;;;;;;2.72;1.30;;;26.80;69.70;;;;;;4798695;29;20050;-75
2023/07/06 12:46:23;;;;;;;3.25;0.80;;;26.60;71.10;;;;;;4785669;29;20094;-77
2023/07/06 12:48:53;;;;;;;2.60;0.77;;;26.80;68.90;;;;;;4784727;29;20053;-81
2023/07/06 12:51:24;;;;;;;3.65;1.33;;;26.90;68.80;;;;;;4782966;29;20064;-77
2023/07/06 12:53:54;;;;;;;3.38;1.13;;;27.00;70.10;;;;;;4796869;29;20834;-78
2023/07/06 12:56:24;;;;;;;2.17;0.88;;;27.00;70.10;;;;;;4798550;29;20053;-77
2023/07/06 12:59:02;;;;;;;3.55;1.25;;;27.10;69.80;;;;;;4792220;29;20399;-79
2023/07/06 13:01:45;;;;;;;3.63;1.10;;;27.20;69.00;;;;;;4786410;29;20058;-81
2023/07/06 13:04:14;;;;;;;2.67;1.38;;;27.10;66.50;;;;;;4783308;29;20136;-78
2023/07/06 13:06:45;;;;;;;3.83;1.58;;;27.10;67.20;;;;;;4799358;29;20058;-83
2023/07/06 13:09:28;;;;;;;3.03;0.73;;;27.20;69.10;;;;;;4786657;29;20062;-77
2023/07/06 13:11:59;;;;;;;4.57;1.33;;;27.20;67.10;;;;;;4777495;29;20803;-77
2023/07/06 13:14:38;;;;;;;3.70;1.08;;;27.20;68.80;;;;;;4795572;29;20522;-78
2023/07/06 13:17:17;;;;;;;3.88;1.20;;;27.10;68.90;;;;;;4809249;29;20061;-79